Time,TemperatureF,DewpointF,PressureIn,WindDirection,WindDirectionDegrees,WindSpeedMPH,WindSpeedGustMPH,Humidity,HourlyPrecipIn,Conditions,Clouds,dailyrainin,SoftwareType,DateUTC
2013-02-04 00:13:00,27.7,1.0,30.04,WSW,253,3.0,15.0,31,0.00,,,0.00,weatherlink.com 1.10,2013-02-04 07:13:00,
2013-02-04 00:28:00,27.8,-1.0,30.02,WNW,293,7.0,18.0,29,0.00,,,0.00,weatherlink.com 1.10,2013-02-04 07:28:00,
2013-02-04 00:43:00,28.0,-1.0,30.02,WSW,257,12.0,17.0,29,0.00,,,0.00,weatherlink.com 1.10,2013-02-04 07:43:00,
2013-02-04 00:58:00,27.6,2.0,30.02,WSW,254,6.0,21.0,33,0.00,,,0.00,weatherlink.com 1.10,2013-02-04 07:58:00,
2013-02-04 01:13:00,27.2,4.0,30.02,West,259,9.0,16.0,37,0.00,,,0.00,weatherlink.com 1.10,2013-02-04 08:13:00,
2013-02-04 01:28:00,27.3,3.0,30.03,WSW,252,5.0,8.0,36,0.00,,,0.00,weatherlink.com 1.10,2013-02-04 08:28:00,
2013-02-04 01:44:00,27.1,3.0,30.03,SE,130,2.0,15.0,36,0.00,,,0.00,weatherlink.com 1.10,2013-02-04 08:44:00,
2013-02-04 01:59:00,27.2,3.0,30.04,West,265,7.0,16.0,35,0.00,,,0.00,weatherlink.com 1.10,2013-02-04 08:59:00,
2013-02-04 02:14:00,27.0,3.0,30.04,SW,231,4.0,15.0,35,0.00,,,0.00,weatherlink.com 1.10,2013-02-04 09:14:00,
2013-02-04 02:29:00,26.8,3.0,30.04,WNW,293,2.0,11.0,36,0.00,,,0.00,weatherlink.com 1.10,2013-02-04 09:29:00,
2013-02-04 02:44:00,26.7,4.0,30.03,WSW,248,10.0,15.0,37,0.00,,,0.00,weatherlink.com 1.10,2013-02-04 09:44:00,
2013-02-04 02:59:00,26.6,4.0,30.01,WSW,257,8.0,19.0,38,0.00,,,0.00,weatherlink.com 1.10,2013-02-04 09:59:00,
2013-02-04 03:14:00,26.5,4.0,30.00,WSW,256,8.0,23.0,38,0.00,,,0.00,weatherlink.com 1.10,2013-02-04 10:14:00,
2013-02-04 03:29:00,26.8,2.0,30.00,WSW,250,7.0,15.0,35,0.00,,,0.00,weatherlink.com 1.10,2013-02-04 10:29:00,
2013-02-04 03:44:00,26.9,3.0,30.01,SW,216,5.0,13.0,36,0.00,,,0.00,weatherlink.com 1.10,2013-02-04 10:44:00,
2013-02-04 03:59:00,26.5,3.0,30.01,WSW,248,5.0,10.0,37,0.00,,,0.00,weatherlink.com 1.10,2013-02-04 10:59:00,
2013-02-04 04:14:00,26.4,2.0,30.02,SSE,151,4.0,13.0,35,0.00,,,0.00,weatherlink.com 1.10,2013-02-04 11:14:00,
2013-02-04 04:29:00,26.5,2.0,30.01,SW,224,5.0,13.0,34,0.00,,,0.00,weatherlink.com 1.10,2013-02-04 11:29:00,
2013-02-04 04:44:00,26.6,2.0,30.00,SW,221,3.0,16.0,34,0.00,,,0.00,weatherlink.com 1.10,2013-02-04 11:44:00,
2013-02-04 04:59:00,26.9,1.0,30.01,SSE,158,2.0,12.0,33,0.00,,,0.00,weatherlink.com 1.10,2013-02-04 11:59:00,
2013-02-04 05:14:00,26.9,1.0,30.01,South,183,6.0,13.0,32,0.00,,,0.00,weatherlink.com 1.10,2013-02-04 12:14:00,
2013-02-04 05:29:00,26.8,1.0,30.01,South,172,3.0,11.0,33,0.00,,,0.00,weatherlink.com 1.10,2013-02-04 12:29:00,
2013-02-04 05:44:00,26.6,2.0,30.01,East,94,3.0,11.0,34,0.00,,,0.00,weatherlink.com 1.10,2013-02-04 12:44:00,
2013-02-04 05:59:00,27.1,1.0,30.01,SSW,201,4.0,12.0,33,0.00,,,0.00,weatherlink.com 1.10,2013-02-04 12:59:00,
2013-02-04 06:14:00,27.1,1.0,30.01,SW,222,3.0,11.0,33,0.00,,,0.00,weatherlink.com 1.10,2013-02-04 13:14:00,
2013-02-04 06:29:00,27.1,2.0,30.00,SW,233,4.0,13.0,34,0.00,,,0.00,weatherlink.com 1.10,2013-02-04 13:29:00,
2013-02-04 06:44:00,27.5,2.0,30.00,West,270,8.0,15.0,34,0.00,,,0.00,weatherlink.com 1.10,2013-02-04 13:44:00,
2013-02-04 06:59:00,27.5,2.0,30.01,WSW,247,4.0,12.0,33,0.00,,,0.00,weatherlink.com 1.10,2013-02-04 13:59:00,
2013-02-04 07:14:00,28.1,1.0,30.00,SSW,200,6.0,14.0,31,0.00,,,0.00,weatherlink.com 1.10,2013-02-04 14:14:00,
2013-02-04 07:29:00,27.9,2.0,30.00,WNW,293,7.0,11.0,33,0.00,,,0.00,weatherlink.com 1.10,2013-02-04 14:29:00,
2013-02-04 07:44:00,28.3,2.0,30.00,South,172,3.0,10.0,32,0.00,,,0.00,weatherlink.com 1.10,2013-02-04 14:44:00,
2013-02-04 07:59:00,28.7,1.0,30.00,WNW,287,7.0,11.0,30,0.00,,,0.00,weatherlink.com 1.10,2013-02-04 14:59:00,
2013-02-04 08:14:00,29.4,1.0,30.00,WNW,297,5.0,17.0,29,0.00,,,0.00,weatherlink.com 1.10,2013-02-04 15:14:00,
2013-02-04 08:29:00,29.0,2.0,30.00,SSW,211,7.0,14.0,32,0.00,,,0.00,weatherlink.com 1.10,2013-02-04 15:29:00,
2013-02-04 08:44:00,29.2,1.0,30.00,WSW,242,10.0,19.0,30,0.00,,,0.00,weatherlink.com 1.10,2013-02-04 15:44:00,
2013-02-04 08:59:00,29.5,2.0,30.01,WNW,300,11.0,16.0,31,0.00,,,0.00,weatherlink.com 1.10,2013-02-04 15:59:00,
2013-02-04 09:14:00,29.9,2.0,30.00,NW,316,13.0,22.0,30,0.00,,,0.00,weatherlink.com 1.10,2013-02-04 16:14:00,
2013-02-04 09:29:00,30.1,1.0,29.99,West,273,9.0,23.0,29,0.00,,,0.00,weatherlink.com 1.10,2013-02-04 16:29:00,
2013-02-04 09:44:00,29.5,2.0,30.00,SW,228,6.0,13.0,31,0.00,,,0.00,weatherlink.com 1.10,2013-02-04 16:44:00,
2013-02-04 09:59:00,29.4,2.0,29.99,WNW,298,4.0,13.0,31,0.00,,,0.00,weatherlink.com 1.10,2013-02-04 16:59:00,
2013-02-04 10:14:00,29.6,3.0,29.99,WNW,289,7.0,12.0,32,0.00,,,0.00,weatherlink.com 1.10,2013-02-04 17:14:00,
2013-02-04 10:29:00,30.3,2.0,29.99,West,262,4.0,13.0,30,0.00,,,0.00,weatherlink.com 1.10,2013-02-04 17:29:00,
2013-02-04 10:46:00,31.0,4.0,29.97,WNW,288,6.0,10.0,31,0.00,,,0.00,weatherlink.com 1.10,2013-02-04 17:46:00,
2013-02-04 11:00:00,31.5,3.0,29.98,WSW,252,3.0,11.0,30,0.00,,,0.00,weatherlink.com 1.10,2013-02-04 18:00:00,
2013-02-04 11:15:00,31.3,4.0,29.99,South,187,1.0,12.0,31,0.00,,,0.00,weatherlink.com 1.10,2013-02-04 18:15:00,
2013-02-04 11:30:00,31.3,4.0,29.98,SW,235,3.0,16.0,31,0.00,,,0.00,weatherlink.com 1.10,2013-02-04 18:30:00,
2013-02-04 11:45:00,31.2,4.0,29.97,ESE,123,0.0,11.0,31,0.00,,,0.00,weatherlink.com 1.10,2013-02-04 18:45:00,
2013-02-04 12:00:00,31.6,4.0,29.96,SSE,164,4.0,12.0,31,0.00,,,0.00,weatherlink.com 1.10,2013-02-04 19:00:00,
2013-02-04 12:15:00,32.2,3.0,29.96,SW,229,4.0,18.0,29,0.00,,,0.00,weatherlink.com 1.10,2013-02-04 19:15:00,
2013-02-04 12:30:00,32.5,3.0,29.95,WNW,302,13.0,20.0,29,0.00,,,0.00,weatherlink.com 1.10,2013-02-04 19:30:00,
2013-02-04 12:45:00,32.6,3.0,29.96,WNW,295,14.0,26.0,29,0.00,,,0.00,weatherlink.com 1.10,2013-02-04 19:45:00,
2013-02-04 13:00:00,32.7,4.0,29.95,SW,235,9.0,16.0,30,0.00,,,0.00,weatherlink.com 1.10,2013-02-04 20:00:00,
2013-02-04 13:15:00,32.7,4.0,29.95,NW,309,4.0,24.0,29,0.00,,,0.00,weatherlink.com 1.10,2013-02-04 20:15:00,
2013-02-04 13:30:00,33.7,4.0,29.94,East,86,2.0,22.0,28,0.00,,,0.00,weatherlink.com 1.10,2013-02-04 20:30:00,
2013-02-04 13:45:00,33.5,2.0,29.93,NNW,342,12.0,36.0,26,0.00,,,0.00,weatherlink.com 1.10,2013-02-04 20:45:00,
2013-02-04 14:00:00,34.3,3.0,29.92,South,177,4.0,19.0,26,0.00,,,0.00,weatherlink.com 1.10,2013-02-04 21:00:00,
2013-02-04 14:15:00,35.7,4.0,29.94,NW,311,13.0,20.0,26,0.00,,,0.00,weatherlink.com 1.10,2013-02-04 21:15:00,
2013-02-04 14:30:00,36.1,4.0,29.94,WSW,245,5.0,23.0,26,0.00,,,0.00,weatherlink.com 1.10,2013-02-04 21:30:00,
2013-02-04 14:45:00,36.2,4.0,29.94,NW,326,6.0,13.0,26,0.00,,,0.00,weatherlink.com 1.10,2013-02-04 21:45:00,
2013-02-04 15:00:00,36.0,5.0,29.96,SW,230,9.0,20.0,27,0.00,,,0.00,weatherlink.com 1.10,2013-02-04 22:00:00,
2013-02-04 15:15:00,35.6,5.0,29.96,WNW,297,14.0,21.0,27,0.00,,,0.00,weatherlink.com 1.10,2013-02-04 22:15:00,
2013-02-04 15:30:00,35.9,5.0,29.95,SSW,198,3.0,17.0,27,0.00,,,0.00,weatherlink.com 1.10,2013-02-04 22:30:00,
2013-02-04 15:45:00,36.6,5.0,29.96,WNW,287,2.0,17.0,26,0.00,,,0.00,weatherlink.com 1.10,2013-02-04 22:45:00,
2013-02-04 16:00:00,36.7,5.0,29.96,NW,319,4.0,13.0,26,0.00,,,0.00,weatherlink.com 1.10,2013-02-04 23:00:00,
2013-02-04 16:15:00,36.7,5.0,29.98,WSW,250,2.0,10.0,27,0.00,,,0.00,weatherlink.com 1.10,2013-02-04 23:15:00,
2013-02-04 16:30:00,36.0,5.0,29.96,SW,228,8.0,19.0,27,0.00,,,0.00,weatherlink.com 1.10,2013-02-04 23:30:00,
2013-02-04 16:45:00,34.0,5.0,29.94,WSW,253,4.0,23.0,30,0.00,,,0.00,weatherlink.com 1.10,2013-02-04 23:45:00,
2013-02-04 17:00:00,32.4,5.0,29.96,SW,225,7.0,22.0,32,0.00,,,0.00,weatherlink.com 1.10,2013-02-05 00:00:00,
2013-02-04 17:15:00,31.9,6.0,29.99,WSW,243,8.0,11.0,33,0.00,,,0.00,weatherlink.com 1.10,2013-02-05 00:15:00,
2013-02-04 17:30:00,31.6,5.0,29.99,West,262,16.0,16.0,33,0.00,,,0.00,weatherlink.com 1.10,2013-02-05 00:30:00,
2013-02-04 17:45:00,31.2,6.0,29.97,SW,225,14.0,34.0,35,0.00,,,0.00,weatherlink.com 1.10,2013-02-05 00:45:00,
2013-02-04 18:00:00,31.3,6.0,29.95,WSW,248,9.0,37.0,35,0.00,,,0.00,weatherlink.com 1.10,2013-02-05 01:00:00,
2013-02-04 18:15:00,31.4,7.0,29.96,NNW,330,15.0,36.0,35,0.00,,,0.00,weatherlink.com 1.10,2013-02-05 01:15:00,
2013-02-04 18:30:00,31.4,7.0,29.96,SW,235,22.0,34.0,36,0.00,,,0.00,weatherlink.com 1.10,2013-02-05 01:30:00,
2013-02-04 18:45:00,31.3,8.0,29.97,West,259,23.0,40.0,37,0.00,,,0.00,weatherlink.com 1.10,2013-02-05 01:45:00,
2013-02-04 19:00:00,31.2,8.0,29.98,WSW,246,13.0,34.0,38,0.00,,,0.00,weatherlink.com 1.10,2013-02-05 02:00:00,
2013-02-04 19:15:00,30.9,8.0,29.98,West,274,4.0,37.0,39,0.00,,,0.00,weatherlink.com 1.10,2013-02-05 02:15:00,
2013-02-04 19:30:00,30.7,8.0,29.96,NW,309,15.0,31.0,39,0.00,,,0.00,weatherlink.com 1.10,2013-02-05 02:30:00,
2013-02-04 19:45:00,30.4,8.0,29.94,WSW,252,15.0,33.0,39,0.00,,,0.00,weatherlink.com 1.10,2013-02-05 02:45:00,
2013-02-04 20:00:00,30.3,9.0,29.94,WNW,291,15.0,27.0,41,0.00,,,0.00,weatherlink.com 1.10,2013-02-05 03:00:00,
2013-02-04 20:15:00,30.7,9.0,29.97,West,266,3.0,25.0,40,0.00,,,0.00,weatherlink.com 1.10,2013-02-05 03:15:00,
2013-02-04 20:30:00,30.3,9.0,29.99,SSW,203,16.0,20.0,40,0.00,,,0.00,weatherlink.com 1.10,2013-02-05 03:30:00,
2013-02-04 20:45:00,30.1,9.0,29.99,WNW,282,4.0,25.0,41,0.00,,,0.00,weatherlink.com 1.10,2013-02-05 03:45:00,
2013-02-04 21:00:00,29.8,9.0,29.99,ESE,119,3.0,9.0,42,0.00,,,0.00,weatherlink.com 1.10,2013-02-05 04:00:00,
2013-02-04 21:15:00,29.7,10.0,29.99,ESE,122,1.0,24.0,43,0.00,,,0.00,weatherlink.com 1.10,2013-02-05 04:15:00,
2013-02-04 21:30:00,30.0,10.0,29.98,ESE,120,2.0,12.0,43,0.00,,,0.00,weatherlink.com 1.10,2013-02-05 04:30:00,
2013-02-04 21:45:00,29.8,11.0,29.99,NE,56,3.0,14.0,45,0.00,,,0.00,weatherlink.com 1.10,2013-02-05 04:45:00,
2013-02-04 22:00:00,29.7,10.0,29.98,West,270,9.0,9.0,44,0.00,,,0.00,weatherlink.com 1.10,2013-02-05 05:00:00,
2013-02-04 22:15:00,29.6,11.0,30.00,NE,41,0.0,12.0,45,0.00,,,0.00,weatherlink.com 1.10,2013-02-05 05:15:00,
2013-02-04 22:30:00,29.4,10.0,30.02,WNW,297,9.0,16.0,45,0.00,,,0.00,weatherlink.com 1.10,2013-02-05 05:30:00,
2013-02-04 22:46:00,29.4,11.0,30.02,WSW,249,10.0,14.0,46,0.00,,,0.00,weatherlink.com 1.10,2013-02-05 05:46:00,
2013-02-04 23:01:00,29.6,11.0,30.03,North,354,4.0,14.0,47,0.00,,,0.00,weatherlink.com 1.10,2013-02-05 06:01:00,
2013-02-04 23:16:00,29.3,11.0,30.02,SW,215,2.0,10.0,46,0.00,,,0.00,weatherlink.com 1.10,2013-02-05 06:16:00,
2013-02-04 23:31:00,29.4,11.0,30.02,WSW,250,7.0,13.0,47,0.00,,,0.00,weatherlink.com 1.10,2013-02-05 06:31:00,
2013-02-04 23:46:00,30.0,11.0,30.02,WSW,237,6.0,19.0,46,0.00,,,0.00,weatherlink.com 1.10,2013-02-05 06:46:00,